»·PEaware :: N1128 KGCN-KLAS

N1128 :: KGCN-KLAS

FLIGHT INFORMATION

Flight Status: Arrived
Operator: Privately registered:
United States
More flights under this callsign
Pilot: Siddique N. (20419)
Aircraft: Unknown
(BT7)
More flights by this aircraft type
Origin: KGCN Grand Canyon Natl Park
United States
Destination: KLAS McCarran Intl
United States
More flights between these airports :: More routes between these airports
Route: +PARKS4 PGS TYSSN5
File this flight plan on PilotEdge
Remarks:
Altitude:
(Current/Filed)
18,000ft
Speed:
(Current/Filed)
200kts
Departed: 17-Aug-20 09:49 AM
Arrived: 17-Aug-20 10:24 AM
Distance/Time
Traveled:
147nm/0:35
Distance/Time
To Go:
Arrived

Flight Plot

Page will automatically refresh every two minutes.

Flight plan parsing failed; only flown route is shown


Map Options




Map Legend


Flown Route
Filed Route
Departure Airport
Arrival Airport
Navaid (VOR, NDB)
Fix

Horizontal Profiles

Position Reports

Time Latitude Longitude Heading Altitude Ground
Speed
17-Aug-20 09:29 35.956571 -112.140229 221 6615ft 0kts
17-Aug-20 09:30 35.956571 -112.140229 221 6615ft 0kts
17-Aug-20 09:31 35.956571 -112.140229 221 6615ft 0kts
17-Aug-20 09:32 35.956571 -112.140229 221 6615ft 0kts
17-Aug-20 09:33 35.956571 -112.140229 221 6615ft 0kts
17-Aug-20 09:34 35.956571 -112.140229 221 6615ft 0kts
17-Aug-20 09:35 35.956571 -112.140229 221 6615ft 0kts
17-Aug-20 09:36 35.956571 -112.140229 221 6615ft 0kts
17-Aug-20 09:37 35.956571 -112.140229 221 6615ft 0kts
17-Aug-20 09:38 35.956571 -112.140229 221 6615ft 0kts
17-Aug-20 09:39 35.956571 -112.140229 221 6615ft 0kts
17-Aug-20 09:40 35.956571 -112.140229 221 6615ft 0kts
17-Aug-20 09:41 35.956571 -112.140229 221 6615ft 0kts
17-Aug-20 09:42 35.956571 -112.140229 221 6615ft 0kts
17-Aug-20 09:43 35.956692 -112.140437 0 6614ft 4kts
17-Aug-20 09:44 35.959985 -112.137242 39 6621ft 22kts
17-Aug-20 09:45 35.960955 -112.136357 350 6624ft 0kts
17-Aug-20 09:46 35.960955 -112.136357 350 6624ft 0kts
17-Aug-20 09:47 35.961575 -112.137138 221 6622ft 0kts
17-Aug-20 09:48 35.939978 -112.158880 214 7302ft 227kts
17-Aug-20 09:49 35.912569 -112.219856 290 9096ft 253kts
17-Aug-20 09:50 35.923372 -112.305679 250 10099ft 266kts
17-Aug-20 09:51 35.907232 -112.377960 258 12764ft 243kts
17-Aug-20 09:52 35.887857 -112.460963 252 16318ft 275kts
17-Aug-20 09:53 35.861760 -112.564420 252 18184ft 364kts
17-Aug-20 09:54 35.828821 -112.695458 252 18236ft 414kts
17-Aug-20 09:55 35.797127 -112.823009 253 18178ft 373kts
17-Aug-20 09:56 35.768378 -112.945234 253 18030ft 382kts
17-Aug-20 09:57 35.738635 -113.075402 254 18019ft 394kts
17-Aug-20 09:58 35.710534 -113.202111 253 18019ft 378kts
17-Aug-20 09:59 35.681322 -113.326076 253 18024ft 385kts
17-Aug-20 10:00 35.649978 -113.455862 252 18017ft 393kts
17-Aug-20 10:01 35.629876 -113.580725 279 18034ft 359kts
17-Aug-20 10:02 35.648292 -113.698999 279 16712ft 345kts
17-Aug-20 10:03 35.666632 -113.812814 277 14826ft 337kts
17-Aug-20 10:04 35.681498 -113.925882 277 12827ft 329kts
17-Aug-20 10:05 35.695586 -114.027873 278 12021ft 284kts
17-Aug-20 10:06 35.709430 -114.126243 278 12020ft 293kts
17-Aug-20 10:07 35.723445 -114.225215 278 11932ft 294kts
17-Aug-20 10:08 35.737505 -114.323636 278 11885ft 293kts
17-Aug-20 10:09 35.782238 -114.400215 337 11905ft 311kts
17-Aug-20 10:10 35.863090 -114.433447 338 11870ft 286kts
17-Aug-20 10:11 35.932908 -114.463149 334 11601ft 275kts
17-Aug-20 10:12 36.002357 -114.497927 334 9907ft 253kts
17-Aug-20 10:13 36.056119 -114.553343 277 9900ft 230kts
17-Aug-20 10:14 36.064892 -114.630101 275 8844ft 222kts
17-Aug-20 10:15 36.071258 -114.706334 272 7860ft 219kts
17-Aug-20 10:16 36.074433 -114.785260 270 6877ft 235kts
17-Aug-20 10:17 36.076681 -114.862247 268 5195ft 213kts
17-Aug-20 10:18 36.088270 -114.933194 274 5112ft 200kts
17-Aug-20 10:19 36.106937 -115.000804 296 4904ft 209kts
17-Aug-20 10:20 36.135568 -115.063027 291 4128ft 205kts
17-Aug-20 10:21 36.134100 -115.119924 249 3264ft 163kts
17-Aug-20 10:22 36.101638 -115.155235 206 2183ft 148kts
17-Aug-20 10:24 36.085198 -115.164964 209 2144ft 34kts
17-Aug-20 10:25 36.083889 -115.166446 231 2152ft 7kts

Navigation Log

Ident Type
Flight plan parsing failed, navigation log unavailable